createdAt,value
2022-10-19T00:01:09.314Z,70.95
2022-10-19T00:03:57.005Z,71.10
2022-10-19T00:06:45.581Z,71.30
2022-10-19T00:09:35.715Z,71.29
2022-10-19T00:12:22.637Z,71.39
2022-10-19T00:15:09.730Z,71.51
2022-10-19T00:18:01.748Z,71.49
2022-10-19T00:20:48.400Z,71.88
2022-10-19T00:23:35.256Z,71.60
2022-10-19T00:26:22.489Z,71.70
2022-10-19T00:29:12.598Z,71.87
2022-10-19T00:31:59.146Z,71.89
2022-10-19T00:34:47.468Z,71.99
2022-10-19T00:37:35.180Z,72.17
2022-10-19T00:40:22.131Z,72.04
2022-10-19T00:43:20.530Z,72.18
2022-10-19T00:46:15.677Z,72.39
2022-10-19T00:49:09.886Z,72.92
2022-10-19T00:52:03.392Z,72.83
2022-10-19T00:54:52.050Z,72.78
2022-10-19T00:57:39.944Z,72.83
2022-10-19T01:04:24.911Z,73.70
2022-10-19T01:07:12.925Z,73.20
2022-10-19T01:10:01.351Z,73.24
2022-10-19T01:12:58.882Z,73.22
2022-10-19T01:16:04.064Z,73.25
2022-10-19T01:19:18.172Z,73.40
2022-10-19T01:22:11.269Z,73.26
2022-10-19T01:25:10.317Z,73.68
2022-10-19T01:28:22.010Z,73.66
2022-10-19T01:31:33.135Z,73.74
2022-10-19T01:34:43.900Z,73.60
2022-10-19T01:37:51.915Z,73.84
2022-10-19T01:40:47.907Z,73.73
2022-10-19T01:43:53.971Z,73.67
2022-10-19T01:46:43.888Z,73.98
2022-10-19T01:49:53.363Z,73.86
2022-10-19T01:52:42.145Z,73.67
2022-10-19T01:55:30.188Z,73.57
2022-10-19T01:58:22.653Z,73.66
2022-10-19T02:04:00.238Z,74.04
2022-10-19T02:06:47.205Z,73.86
2022-10-19T02:09:33.817Z,73.75
2022-10-19T02:12:21.217Z,73.99
2022-10-19T02:15:13.334Z,74.14
2022-10-19T02:18:01.948Z,74.18
2022-10-19T02:20:51.667Z,74.18
2022-10-19T02:23:38.640Z,74.30
2022-10-19T02:26:25.836Z,74.59
2022-10-19T02:29:15.127Z,74.48
2022-10-19T02:32:02.743Z,74.56
2022-10-19T02:34:49.478Z,74.49
2022-10-19T02:37:37.331Z,74.53
2022-10-19T02:40:25.024Z,74.32
2022-10-19T02:43:16.086Z,74.15
2022-10-19T02:46:07.415Z,74.03
2022-10-19T02:48:55.598Z,74.10
2022-10-19T02:52:01.242Z,74.25
2022-10-19T02:54:50.390Z,74.05
2022-10-19T02:57:37.655Z,74.19
2022-10-19T03:00:24.552Z,74.27
2022-10-19T03:03:11.740Z,74.64
2022-10-19T03:05:58.520Z,74.63
2022-10-19T03:08:45.382Z,75.03
2022-10-19T03:11:31.963Z,74.88
2022-10-19T03:14:18.661Z,75.46
2022-10-19T03:17:05.646Z,75.66
2022-10-19T03:19:52.262Z,75.45
2022-10-19T03:22:40.109Z,75.39
2022-10-19T03:25:27.419Z,75.47
2022-10-19T03:28:14.649Z,75.41
2022-10-19T03:31:01.281Z,75.24
2022-10-19T03:33:48.217Z,75.18
2022-10-19T03:36:37.495Z,74.96
2022-10-19T03:39:25.542Z,75.15
2022-10-19T03:42:12.241Z,74.94
2022-10-19T03:44:59.094Z,75.55
2022-10-19T03:47:49.669Z,75.14
2022-10-19T03:50:36.582Z,75.00
2022-10-19T03:53:23.512Z,74.99
2022-10-19T03:56:19.925Z,74.96
2022-10-19T03:59:07.172Z,74.98
2022-10-19T04:01:54.245Z,75.11
2022-10-19T04:04:40.830Z,75.26
2022-10-19T04:07:27.513Z,75.40
2022-10-19T04:10:14.401Z,75.23
2022-10-19T04:13:01.064Z,75.27
2022-10-19T04:15:48.135Z,75.41
2022-10-19T04:18:34.657Z,75.19
2022-10-19T04:21:31.612Z,75.19
2022-10-19T04:24:19.245Z,75.40
2022-10-19T04:27:06.232Z,75.28
2022-10-19T04:29:53.245Z,75.21
2022-10-19T04:32:40.353Z,75.42
2022-10-19T04:35:27.354Z,75.18
2022-10-19T04:38:13.993Z,75.24
2022-10-19T04:41:12.287Z,75.31
2022-10-19T04:44:01.650Z,19.20
2022-10-19T04:46:48.296Z,-1.00
2022-10-19T04:49:35.022Z,-1.00
2022-10-19T04:52:21.792Z,-1.00
2022-10-19T04:55:08.812Z,-1.00
2022-10-19T04:57:55.649Z,-1.00
2022-10-19T05:00:43.222Z,-1.00
2022-10-19T05:03:29.803Z,-1.00
2022-10-19T05:06:17.395Z,-1.00
2022-10-19T05:09:04.407Z,-1.00
2022-10-19T05:11:51.316Z,-1.00
2022-10-19T05:14:41.905Z,-1.00
2022-10-19T05:17:33.509Z,-1.00
2022-10-19T05:20:21.056Z,-1.00
2022-10-19T05:23:07.833Z,-1.00
2022-10-19T05:26:05.895Z,-1.00
2022-10-19T05:29:01.460Z,-1.00
2022-10-19T05:31:48.416Z,-1.00
2022-10-19T05:34:35.329Z,-1.00
2022-10-19T05:37:22.584Z,-1.00
2022-10-19T05:40:10.200Z,-1.00
2022-10-19T05:42:57.305Z,-1.00
2022-10-19T05:45:44.121Z,-1.00
2022-10-19T05:48:34.003Z,-1.00
2022-10-19T05:51:22.129Z,-1.00
2022-10-19T05:54:10.004Z,-1.00
2022-10-19T05:56:56.903Z,-1.00
2022-10-19T05:59:43.720Z,-1.00
2022-10-19T06:02:31.799Z,-1.00
2022-10-19T06:05:18.687Z,-1.00
2022-10-19T06:08:05.342Z,-1.00
2022-10-19T06:10:52.416Z,-1.00
2022-10-19T06:13:40.437Z,-1.00
2022-10-19T06:16:28.709Z,-1.00
2022-10-19T06:19:16.046Z,-1.00
2022-10-19T06:22:03.336Z,-1.00
2022-10-19T06:24:51.166Z,-1.00
2022-10-19T06:27:38.523Z,-1.00
2022-10-19T06:30:25.816Z,-1.00
2022-10-19T06:33:12.812Z,-1.00
2022-10-19T06:36:27.234Z,-1.00
2022-10-19T06:39:14.464Z,-1.00
2022-10-19T06:42:01.523Z,-1.00
2022-10-19T06:44:48.844Z,-1.00
2022-10-19T06:47:36.882Z,-1.00
2022-10-19T06:50:24.405Z,61.96
2022-10-19T06:53:11.930Z,77.77
2022-10-19T06:55:59.735Z,77.93
2022-10-19T06:58:47.204Z,77.78
2022-10-19T07:01:34.096Z,77.66
2022-10-19T07:04:21.563Z,77.51
2022-10-19T07:07:08.309Z,77.37
2022-10-19T07:09:55.862Z,77.45
2022-10-19T07:12:42.922Z,77.11
2022-10-19T07:15:30.261Z,76.70
2022-10-19T07:18:17.195Z,76.95
2022-10-19T07:21:06.977Z,76.64
2022-10-19T07:23:53.909Z,76.53
2022-10-19T07:26:42.796Z,76.53
2022-10-19T07:29:29.745Z,77.26
2022-10-19T07:32:17.381Z,77.55
2022-10-19T07:35:05.412Z,76.67
2022-10-19T07:37:52.434Z,74.30
2022-10-19T07:40:42.396Z,75.69
2022-10-19T07:43:31.606Z,77.18
2022-10-19T07:46:27.435Z,73.59
2022-10-19T07:49:16.528Z,70.95
2022-10-19T07:52:03.359Z,69.92
2022-10-19T07:54:50.763Z,69.99
2022-10-19T07:57:37.560Z,69.98
2022-10-19T08:00:25.469Z,70.40
2022-10-19T08:03:57.114Z,70.51
2022-10-19T08:06:19.974Z,72.22
2022-10-19T08:09:07.872Z,70.88
2022-10-19T08:11:55.349Z,70.06
2022-10-19T08:14:43.258Z,69.87
2022-10-19T08:17:30.930Z,69.59
2022-10-19T08:20:17.637Z,69.57
2022-10-19T08:23:04.818Z,69.42
2022-10-19T08:25:51.514Z,69.27
2022-10-19T08:28:38.968Z,69.41
2022-10-19T08:31:28.176Z,69.21
2022-10-19T08:34:15.911Z,69.34
2022-10-19T08:37:10.312Z,68.47
2022-10-19T08:40:17.475Z,66.59
2022-10-19T08:43:17.748Z,64.06
2022-10-19T08:46:24.691Z,63.21
2022-10-19T08:49:19.345Z,62.82
2022-10-19T08:52:13.887Z,63.60
2022-10-19T08:55:05.433Z,63.56
2022-10-19T08:58:14.500Z,63.91
2022-10-19T09:01:11.982Z,63.80
2022-10-19T09:04:06.815Z,62.56
2022-10-19T09:07:23.404Z,63.20
2022-10-19T09:10:13.538Z,63.75
2022-10-19T09:13:05.994Z,62.99
2022-10-19T09:15:55.327Z,63.20
2022-10-19T09:18:43.821Z,63.77
2022-10-19T09:21:55.637Z,63.56
2022-10-19T09:24:49.541Z,63.72
2022-10-19T09:27:39.833Z,63.74
2022-10-19T09:30:29.394Z,63.26
2022-10-19T09:33:23.648Z,63.03
2022-10-19T09:36:18.304Z,63.50
2022-10-19T09:39:14.549Z,63.40
2022-10-19T09:42:38.560Z,62.75
2022-10-19T09:45:46.156Z,62.76
2022-10-19T09:48:44.620Z,63.16
2022-10-19T09:51:51.857Z,62.71
2022-10-19T09:54:39.664Z,63.52
2022-10-19T09:57:26.281Z,63.62
2022-10-19T10:00:22.072Z,63.48
2022-10-19T10:03:23.421Z,63.38
2022-10-19T10:06:14.645Z,63.68
2022-10-19T10:09:01.651Z,63.42
2022-10-19T10:14:45.484Z,62.97
2022-10-19T10:17:35.721Z,63.63
2022-10-19T10:20:27.919Z,63.09
2022-10-19T10:23:24.430Z,62.92
2022-10-19T10:26:20.032Z,63.07
2022-10-19T10:29:37.856Z,61.80
2022-10-19T10:32:25.519Z,62.40
2022-10-19T10:35:53.731Z,61.93
2022-10-19T10:38:49.765Z,61.48
2022-10-19T10:41:45.041Z,61.83
2022-10-19T10:44:36.585Z,62.19
2022-10-19T10:47:23.864Z,62.52
2022-10-19T10:50:36.524Z,62.44
2022-10-19T10:53:43.565Z,61.83
2022-10-19T10:56:33.668Z,61.90
2022-10-19T10:59:26.993Z,61.83
2022-10-19T11:02:33.000Z,61.71
2022-10-19T11:05:26.263Z,62.06
2022-10-19T11:08:46.910Z,61.41
2022-10-19T11:11:42.736Z,61.00
2022-10-19T11:14:43.948Z,61.28
2022-10-19T11:17:36.984Z,60.82
2022-10-19T11:20:30.143Z,60.77
2022-10-19T11:23:27.556Z,59.90
2022-10-19T11:26:20.077Z,60.31
2022-10-19T11:29:20.311Z,60.78
2022-10-19T11:32:20.613Z,60.35
2022-10-19T11:35:39.281Z,60.70
2022-10-19T11:38:45.127Z,60.56
2022-10-19T11:41:37.598Z,61.15
2022-10-19T11:44:59.684Z,60.71
2022-10-19T11:47:53.962Z,61.24
2022-10-19T11:50:49.713Z,61.46
2022-10-19T11:54:28.575Z,61.67
2022-10-19T11:57:46.160Z,61.41
2022-10-19T12:00:50.410Z,61.44
2022-10-19T12:03:50.696Z,61.57
2022-10-19T12:07:04.044Z,61.81
2022-10-19T12:10:02.814Z,60.86
2022-10-19T12:12:54.488Z,60.67
2022-10-19T12:15:46.736Z,60.53
2022-10-19T12:18:43.499Z,60.29
2022-10-19T12:21:40.103Z,60.28
2022-10-19T12:24:30.429Z,60.45
2022-10-19T12:27:24.915Z,60.31
2022-10-19T12:30:19.769Z,60.41
2022-10-19T12:33:20.366Z,60.66
2022-10-19T12:36:20.248Z,60.55
2022-10-19T12:39:17.449Z,60.55
2022-10-19T12:42:15.607Z,61.06
2022-10-19T12:45:05.826Z,60.71
2022-10-19T12:48:08.414Z,60.77
2022-10-19T12:50:56.771Z,61.17
2022-10-19T12:53:50.916Z,61.35
2022-10-19T12:56:48.803Z,61.19
2022-10-19T12:59:37.394Z,61.11
2022-10-19T13:02:38.638Z,61.03
2022-10-19T13:05:27.920Z,61.17
2022-10-19T13:08:29.921Z,60.29
2022-10-19T13:11:17.032Z,60.58
2022-10-19T13:14:07.018Z,60.55
2022-10-19T13:17:02.175Z,60.80
2022-10-19T13:19:49.923Z,60.91
2022-10-19T13:22:37.564Z,61.10
2022-10-19T13:25:37.335Z,61.37
2022-10-19T13:28:27.108Z,61.13
2022-10-19T13:31:26.537Z,61.27
2022-10-19T13:34:19.549Z,61.03
2022-10-19T13:37:13.011Z,61.39
2022-10-19T13:40:00.185Z,61.40
2022-10-19T13:42:58.465Z,61.49
2022-10-19T13:45:57.616Z,61.07
2022-10-19T13:49:04.385Z,61.26
2022-10-19T13:52:31.504Z,61.78
2022-10-19T13:55:32.053Z,61.32
2022-10-19T13:58:53.549Z,61.50
2022-10-19T14:01:57.370Z,61.32
2022-10-19T14:05:23.011Z,61.60
2022-10-19T14:08:30.323Z,61.54
2022-10-19T14:11:27.279Z,61.55
2022-10-19T14:14:18.112Z,61.90
2022-10-19T14:20:26.086Z,62.01
2022-10-19T14:23:23.476Z,62.17
2022-10-19T14:26:17.191Z,62.50
2022-10-19T14:29:04.052Z,63.14
2022-10-19T14:31:52.200Z,63.10
2022-10-19T14:34:41.284Z,63.57
2022-10-19T14:37:28.807Z,63.62
2022-10-19T14:40:26.426Z,63.54
2022-10-19T14:43:46.853Z,63.61
2022-10-19T14:46:34.816Z,63.60
2022-10-19T14:49:21.820Z,63.52
2022-10-19T14:52:10.953Z,63.71
2022-10-19T14:55:01.573Z,63.83
2022-10-19T14:57:52.149Z,64.25
2022-10-19T15:00:38.820Z,64.06
2022-10-19T15:03:29.923Z,64.11
2022-10-19T15:06:30.758Z,63.97
2022-10-19T15:09:37.390Z,64.03
2022-10-19T15:12:42.559Z,63.89
2022-10-19T15:15:35.372Z,63.98
2022-10-19T15:18:44.361Z,63.89
2022-10-19T15:21:33.529Z,64.22
2022-10-19T15:24:28.390Z,64.12
2022-10-19T15:27:21.178Z,64.17
2022-10-19T15:30:21.298Z,64.20
2022-10-19T15:33:14.602Z,64.52
2022-10-19T15:36:17.521Z,64.57
2022-10-19T15:39:25.398Z,64.89
2022-10-19T15:42:36.550Z,65.11
2022-10-19T15:45:41.838Z,65.05
2022-10-19T15:48:40.938Z,65.31
2022-10-19T15:51:28.667Z,65.13
2022-10-19T15:54:18.427Z,65.47
2022-10-19T15:57:24.278Z,65.49
2022-10-19T16:00:14.638Z,65.52
2022-10-19T16:03:05.483Z,65.51
2022-10-19T16:05:52.114Z,65.46
2022-10-19T16:08:40.300Z,65.61
2022-10-19T16:11:29.058Z,65.59
2022-10-19T16:17:04.801Z,66.03
2022-10-19T16:19:54.068Z,65.89
2022-10-19T16:22:40.899Z,65.85
2022-10-19T16:25:27.884Z,66.16
2022-10-19T16:28:15.525Z,66.19
2022-10-19T16:31:02.858Z,66.14
2022-10-19T16:33:49.418Z,66.28
2022-10-19T16:36:36.151Z,66.41
2022-10-19T16:39:25.646Z,66.45
2022-10-19T16:42:12.819Z,66.24
2022-10-19T16:45:03.858Z,66.48
2022-10-19T16:47:51.306Z,66.62
2022-10-19T16:50:38.405Z,66.97
2022-10-19T16:53:27.366Z,67.15
2022-10-19T16:56:14.355Z,67.25
2022-10-19T16:59:06.138Z,67.64
2022-10-19T17:01:54.080Z,67.88
2022-10-19T17:04:41.280Z,67.76
2022-10-19T17:07:29.562Z,68.21
2022-10-19T17:10:16.951Z,68.02
2022-10-19T17:13:03.811Z,68.17
2022-10-19T17:15:51.293Z,68.34
2022-10-19T17:18:39.359Z,68.45
2022-10-19T17:21:37.559Z,68.56
2022-10-19T17:24:24.305Z,68.70
2022-10-19T17:27:11.607Z,68.66
2022-10-19T17:29:58.537Z,69.06
2022-10-19T17:32:46.046Z,68.81
2022-10-19T17:35:34.328Z,69.08
2022-10-19T17:38:21.199Z,69.26
2022-10-19T17:41:12.300Z,69.43
2022-10-19T17:43:59.357Z,69.35
2022-10-19T17:46:46.726Z,69.40
2022-10-19T17:49:34.338Z,69.50
2022-10-19T17:52:22.083Z,69.57
2022-10-19T17:55:13.370Z,69.71
2022-10-19T17:58:02.006Z,69.74
2022-10-19T18:00:54.427Z,69.75
2022-10-19T18:03:41.775Z,69.75
2022-10-19T18:06:31.789Z,70.09
2022-10-19T18:09:18.772Z,70.06
2022-10-19T18:12:07.505Z,70.12
2022-10-19T18:14:55.681Z,70.15
2022-10-19T18:17:42.629Z,70.06
2022-10-19T18:20:29.562Z,70.19
2022-10-19T18:23:37.251Z,70.29
2022-10-19T18:26:26.244Z,70.35
2022-10-19T18:29:17.827Z,70.33
2022-10-19T18:34:53.996Z,70.69
2022-10-19T18:37:43.393Z,70.70
2022-10-19T18:40:30.239Z,70.71
2022-10-19T18:43:17.025Z,70.89
2022-10-19T18:46:06.112Z,70.98
2022-10-19T18:48:53.894Z,70.81
2022-10-19T18:51:40.988Z,71.13
2022-10-19T18:54:28.401Z,71.07
2022-10-19T18:57:15.080Z,71.00
2022-10-19T19:00:03.522Z,71.13
2022-10-19T19:02:55.136Z,71.29
2022-10-19T19:05:41.707Z,71.00
2022-10-19T19:08:29.018Z,70.81
2022-10-19T19:11:21.704Z,70.88
2022-10-19T19:14:14.319Z,70.79
2022-10-19T19:17:01.036Z,70.75
2022-10-19T19:19:47.787Z,70.73
2022-10-19T19:22:34.765Z,70.78
2022-10-19T19:25:22.297Z,70.83
2022-10-19T19:28:09.333Z,70.73
2022-10-19T19:30:56.080Z,70.69
2022-10-19T19:33:44.537Z,70.81
2022-10-19T19:36:32.147Z,70.72
2022-10-19T19:39:21.432Z,70.98
2022-10-19T19:42:09.172Z,70.93
2022-10-19T19:45:01.742Z,71.09
2022-10-19T19:47:48.726Z,71.12
2022-10-19T19:50:36.171Z,71.31
2022-10-19T19:53:23.274Z,71.01
2022-10-19T19:56:11.724Z,71.14
2022-10-19T19:59:00.678Z,71.18
2022-10-19T20:01:47.771Z,71.22
2022-10-19T20:04:35.221Z,71.50
2022-10-19T20:07:22.448Z,71.32
2022-10-19T20:10:09.712Z,71.45
2022-10-19T20:12:57.248Z,71.26
2022-10-19T20:15:43.870Z,71.15
2022-10-19T20:18:31.428Z,71.07
2022-10-19T20:21:19.384Z,71.03
2022-10-19T20:24:07.864Z,70.89
2022-10-19T20:26:54.740Z,70.71
2022-10-19T20:29:41.947Z,70.86
2022-10-19T20:32:29.596Z,71.07
2022-10-19T20:35:16.324Z,71.44
2022-10-19T20:38:04.386Z,71.24
2022-10-19T20:40:51.552Z,71.21
2022-10-19T20:43:38.783Z,71.21
2022-10-19T20:46:29.755Z,71.27
2022-10-19T20:49:16.319Z,71.25
2022-10-19T20:52:03.720Z,71.38
2022-10-19T20:54:50.957Z,71.51
2022-10-19T20:57:37.577Z,71.47
2022-10-19T21:00:24.433Z,71.39
2022-10-19T21:03:11.796Z,71.10
2022-10-19T21:05:58.274Z,71.36
2022-10-19T21:08:45.376Z,71.59
2022-10-19T21:11:34.717Z,71.98
2022-10-19T21:14:28.421Z,72.19
2022-10-19T21:17:15.969Z,72.11
2022-10-19T21:20:02.497Z,71.92
2022-10-19T21:22:49.237Z,72.00
2022-10-19T21:25:36.234Z,72.21
2022-10-19T21:28:22.904Z,72.40
2022-10-19T21:31:09.853Z,72.42
2022-10-19T21:33:56.788Z,72.31
2022-10-19T21:36:43.850Z,72.19
2022-10-19T21:39:31.847Z,72.36
2022-10-19T21:42:18.699Z,72.31
2022-10-19T21:45:25.544Z,72.47
2022-10-19T21:48:13.547Z,72.24
2022-10-19T21:51:00.756Z,72.11
2022-10-19T21:53:47.779Z,72.02
2022-10-19T21:56:35.103Z,71.83
2022-10-19T21:59:21.739Z,72.24
2022-10-19T22:02:08.807Z,72.24
2022-10-19T22:04:55.418Z,72.42
2022-10-19T22:07:41.924Z,72.50
2022-10-19T22:10:28.489Z,72.56
2022-10-19T22:13:15.229Z,72.62
2022-10-19T22:16:20.794Z,72.48
2022-10-19T22:19:07.679Z,72.64
2022-10-19T22:21:55.093Z,72.65
2022-10-19T22:24:42.302Z,72.28
2022-10-19T22:27:28.998Z,72.16
2022-10-19T22:30:15.673Z,72.17
2022-10-19T22:33:02.611Z,71.95
2022-10-19T22:35:57.491Z,71.76
2022-10-19T22:38:44.871Z,71.89
2022-10-19T22:41:31.599Z,71.69
2022-10-19T22:44:18.550Z,71.39
2022-10-19T22:47:05.374Z,71.76
2022-10-19T22:49:52.118Z,71.86
2022-10-19T22:52:39.118Z,72.06
2022-10-19T22:55:26.347Z,71.89
2022-10-19T22:58:13.004Z,72.06
2022-10-19T23:01:11.969Z,72.15
2022-10-19T23:03:59.103Z,72.45
2022-10-19T23:06:46.117Z,72.36
2022-10-19T23:09:32.615Z,72.26
2022-10-19T23:12:19.691Z,72.28
2022-10-19T23:15:07.234Z,72.50
2022-10-19T23:17:53.979Z,72.48
2022-10-19T23:20:41.121Z,72.53
2022-10-19T23:23:29.680Z,72.20
2022-10-19T23:26:19.295Z,72.50
2022-10-19T23:29:06.139Z,72.39
2022-10-19T23:31:53.007Z,72.42
2022-10-19T23:34:41.182Z,72.46
2022-10-19T23:37:30.261Z,72.52
2022-10-19T23:40:17.051Z,72.42
2022-10-19T23:43:03.924Z,72.57
2022-10-19T23:45:50.586Z,72.67
2022-10-19T23:48:38.603Z,72.70
2022-10-19T23:51:25.430Z,72.92
2022-10-19T23:54:11.850Z,28.58
2022-10-19T23:56:58.317Z,-1.00
2022-10-19T23:59:44.994Z,-1.00
